createdAt,value
2023-02-08T00:00:19.593Z,74.17
2023-02-08T00:02:47.176Z,74.64
2023-02-08T00:05:14.715Z,74.73
2023-02-08T00:07:43.480Z,75.07
2023-02-08T00:10:11.746Z,75.09
2023-02-08T00:12:39.177Z,74.25
2023-02-08T00:15:07.227Z,75.03
2023-02-08T00:17:34.638Z,74.29
2023-02-08T00:20:02.059Z,74.83
2023-02-08T00:22:29.479Z,75.26
2023-02-08T00:24:58.228Z,74.91
2023-02-08T00:27:25.657Z,75.18
2023-02-08T00:29:53.083Z,75.71
2023-02-08T00:32:20.473Z,75.45
2023-02-08T00:34:47.900Z,74.99
2023-02-08T00:37:15.341Z,75.58
2023-02-08T00:39:42.812Z,74.22
2023-02-08T00:42:11.681Z,75.50
2023-02-08T00:44:39.396Z,76.15
2023-02-08T00:47:06.940Z,75.34
2023-02-08T00:49:34.617Z,74.86
2023-02-08T00:52:02.085Z,75.49
2023-02-08T00:54:29.521Z,75.18
2023-02-08T00:56:56.901Z,74.60
2023-02-08T00:59:25.905Z,74.63
2023-02-08T01:01:53.372Z,75.41
2023-02-08T01:04:20.794Z,74.22
2023-02-08T01:06:48.209Z,74.78
2023-02-08T01:09:15.695Z,75.24
2023-02-08T01:11:43.120Z,75.08
2023-02-08T01:14:10.909Z,74.75
2023-02-08T01:16:39.944Z,74.97
2023-02-08T01:19:07.742Z,74.27
2023-02-08T01:21:37.853Z,74.12
2023-02-08T01:24:06.111Z,74.21
2023-02-08T01:26:34.103Z,75.18
2023-02-08T01:29:03.998Z,75.88
2023-02-08T01:31:33.775Z,76.37
2023-02-08T01:34:04.210Z,75.50
2023-02-08T01:36:33.526Z,77.03
2023-02-08T01:39:01.283Z,76.94
2023-02-08T01:41:31.615Z,77.52
2023-02-08T01:44:08.169Z,76.44
2023-02-08T01:46:37.504Z,77.34
2023-02-08T01:49:11.792Z,76.79
2023-02-08T01:51:43.186Z,76.38
2023-02-08T01:54:13.821Z,76.59
2023-02-08T01:56:45.738Z,77.20
2023-02-08T01:59:18.803Z,77.68
2023-02-08T02:01:48.545Z,77.53
2023-02-08T02:04:17.454Z,76.43
2023-02-08T02:06:48.976Z,77.18
2023-02-08T02:09:21.802Z,77.47
2023-02-08T02:11:50.919Z,77.41
2023-02-08T02:14:18.631Z,77.89
2023-02-08T02:16:46.194Z,77.06
2023-02-08T02:19:32.600Z,77.20
2023-02-08T02:22:16.093Z,76.84
2023-02-08T02:25:06.821Z,77.08
2023-02-08T02:27:49.184Z,76.84
2023-02-08T02:30:42.682Z,76.97
2023-02-08T02:33:36.138Z,76.77
2023-02-08T02:36:14.583Z,76.30
2023-02-08T02:38:53.801Z,76.24
2023-02-08T02:41:51.602Z,75.72
2023-02-08T02:44:24.725Z,75.81
2023-02-08T02:47:01.655Z,75.58
2023-02-08T02:49:38.385Z,75.15
2023-02-08T02:52:10.428Z,75.56
2023-02-08T02:54:42.549Z,76.00
2023-02-08T02:57:14.386Z,75.56
2023-02-08T02:59:43.049Z,76.09
2023-02-08T03:02:11.121Z,75.32
2023-02-08T03:04:58.045Z,75.84
2023-02-08T03:07:43.616Z,75.36
2023-02-08T03:10:25.791Z,75.68
2023-02-08T03:12:59.896Z,75.87
2023-02-08T03:15:36.288Z,76.03
2023-02-08T03:18:13.765Z,75.39
2023-02-08T03:20:49.279Z,75.43
2023-02-08T03:23:24.742Z,75.45
2023-02-08T03:26:01.134Z,75.54
2023-02-08T03:28:37.850Z,75.37
2023-02-08T03:31:13.890Z,75.41
2023-02-08T03:33:46.421Z,74.50
2023-02-08T03:36:23.020Z,74.26
2023-02-08T03:38:52.079Z,74.37
2023-02-08T03:41:23.758Z,74.57
2023-02-08T03:43:57.540Z,74.25
2023-02-08T03:46:29.178Z,74.53
2023-02-08T03:49:01.369Z,74.08
2023-02-08T03:51:31.990Z,73.63
2023-02-08T03:54:04.614Z,74.51
2023-02-08T03:56:39.747Z,75.23
2023-02-08T03:59:10.381Z,74.17
2023-02-08T04:01:45.473Z,74.63
2023-02-08T04:04:15.230Z,74.35
2023-02-08T04:06:44.065Z,74.00
2023-02-08T04:09:11.570Z,73.80
2023-02-08T04:11:39.016Z,73.92
2023-02-08T04:14:06.429Z,74.04
2023-02-08T04:16:33.894Z,73.64
2023-02-08T04:19:01.323Z,73.29
2023-02-08T04:21:28.789Z,72.89
2023-02-08T04:23:57.599Z,73.31
2023-02-08T04:26:25.023Z,74.67
2023-02-08T04:28:52.432Z,73.90
2023-02-08T04:31:19.926Z,73.67
2023-02-08T04:33:47.404Z,73.59
2023-02-08T04:36:14.837Z,73.92
2023-02-08T04:38:42.277Z,73.29
2023-02-08T04:41:11.093Z,74.31
2023-02-08T04:43:38.587Z,73.97
2023-02-08T04:46:06.389Z,73.59
2023-02-08T04:48:33.850Z,72.68
2023-02-08T04:51:01.564Z,72.77
2023-02-08T04:53:29.018Z,73.47
2023-02-08T04:55:56.460Z,73.36
2023-02-08T04:58:25.264Z,73.02
2023-02-08T05:00:52.709Z,72.91
2023-02-08T05:03:20.513Z,73.08
2023-02-08T05:05:47.925Z,71.61
2023-02-08T05:08:15.333Z,71.92
2023-02-08T05:10:45.844Z,72.68
2023-02-08T05:13:13.280Z,72.54
2023-02-08T05:15:42.127Z,71.90
2023-02-08T05:18:09.600Z,72.23
2023-02-08T05:20:37.071Z,72.30
2023-02-08T05:23:06.024Z,72.38
2023-02-08T05:25:33.445Z,73.11
2023-02-08T05:28:01.169Z,73.67
2023-02-08T05:30:28.659Z,72.70
2023-02-08T05:32:57.448Z,73.32
2023-02-08T05:35:24.851Z,72.55
2023-02-08T05:37:52.282Z,72.85
2023-02-08T05:40:19.806Z,73.14
2023-02-08T05:42:47.639Z,72.84
2023-02-08T05:45:15.404Z,76.45
2023-02-08T05:47:42.975Z,72.96
2023-02-08T05:50:11.787Z,74.01
2023-02-08T05:52:39.292Z,73.38
2023-02-08T05:55:07.459Z,73.83
2023-02-08T05:57:35.827Z,76.81
2023-02-08T06:00:04.246Z,75.65
2023-02-08T06:02:32.476Z,73.79
2023-02-08T06:04:59.935Z,73.41
2023-02-08T06:07:29.761Z,72.82
2023-02-08T06:09:57.210Z,72.57
2023-02-08T06:12:24.661Z,73.64
2023-02-08T06:14:52.108Z,73.05
2023-02-08T06:17:19.702Z,73.08
2023-02-08T06:19:47.136Z,73.45
2023-02-08T06:22:14.589Z,72.41
2023-02-08T06:24:43.427Z,72.30
2023-02-08T06:27:10.879Z,72.18
2023-02-08T06:29:38.294Z,71.40
2023-02-08T06:32:06.168Z,73.54
2023-02-08T06:34:33.728Z,72.25
2023-02-08T06:37:02.221Z,71.41
2023-02-08T06:39:30.554Z,71.46
2023-02-08T06:41:59.354Z,71.38
2023-02-08T06:44:26.766Z,71.26
2023-02-08T06:46:54.382Z,71.55
2023-02-08T06:49:22.248Z,70.95
2023-02-08T06:51:50.220Z,71.49
2023-02-08T06:54:19.759Z,71.64
2023-02-08T06:56:47.156Z,73.62
2023-02-08T06:59:16.047Z,71.14
2023-02-08T07:01:43.469Z,72.52
2023-02-08T07:04:10.897Z,72.60
2023-02-08T07:06:38.316Z,71.48
2023-02-08T07:09:05.776Z,73.08
2023-02-08T07:11:33.225Z,73.43
2023-02-08T07:14:00.666Z,71.68
2023-02-08T07:16:29.415Z,71.35
2023-02-08T07:18:56.927Z,71.42
2023-02-08T07:21:24.361Z,71.32
2023-02-08T07:23:51.759Z,72.30
2023-02-08T07:26:19.162Z,71.50
2023-02-08T07:28:46.585Z,70.78
2023-02-08T07:31:16.129Z,70.39
2023-02-08T07:33:45.392Z,70.82
2023-02-08T07:36:12.975Z,70.50
2023-02-08T07:38:40.606Z,70.77
2023-02-08T07:41:09.863Z,70.11
2023-02-08T07:43:37.656Z,70.59
2023-02-08T07:46:08.912Z,69.83
2023-02-08T07:48:38.511Z,69.91
2023-02-08T07:51:09.262Z,70.12
2023-02-08T07:53:37.288Z,69.63
2023-02-08T07:56:05.182Z,69.63
2023-02-08T07:58:32.728Z,69.41
2023-02-08T08:01:06.885Z,69.03
2023-02-08T08:03:39.968Z,69.54
2023-02-08T08:06:09.049Z,69.75
2023-02-08T08:08:36.483Z,69.38
2023-02-08T08:11:04.024Z,69.03
2023-02-08T08:13:31.437Z,69.50
2023-02-08T08:15:59.055Z,69.08
2023-02-08T08:18:26.530Z,68.80
2023-02-08T08:20:54.003Z,68.45
2023-02-08T08:23:23.778Z,68.72
2023-02-08T08:25:51.309Z,68.79
2023-02-08T08:28:18.962Z,68.85
2023-02-08T08:30:46.931Z,68.71
2023-02-08T08:33:14.815Z,67.84
2023-02-08T08:35:42.581Z,68.22
2023-02-08T08:38:10.321Z,69.51
2023-02-08T08:40:39.298Z,68.63
2023-02-08T08:43:06.935Z,68.52
2023-02-08T08:45:36.156Z,68.66
2023-02-08T08:48:04.212Z,68.83
2023-02-08T08:50:31.954Z,68.81
2023-02-08T08:52:59.405Z,67.92
2023-02-08T08:55:28.307Z,69.90
2023-02-08T08:57:57.144Z,72.41
2023-02-08T09:00:24.835Z,69.97
2023-02-08T09:02:52.426Z,71.36
2023-02-08T09:05:20.235Z,69.61
2023-02-08T09:07:47.737Z,70.38
2023-02-08T09:10:15.169Z,69.64
2023-02-08T09:12:42.743Z,68.93
2023-02-08T09:15:11.718Z,68.03
2023-02-08T09:17:39.647Z,69.02
2023-02-08T09:20:07.765Z,67.74
2023-02-08T09:22:35.214Z,67.12
2023-02-08T09:25:02.711Z,67.21
2023-02-08T09:27:30.246Z,69.92
2023-02-08T09:29:57.636Z,70.38
2023-02-08T09:32:26.376Z,69.99
2023-02-08T09:34:53.812Z,69.61
2023-02-08T09:37:21.268Z,68.65
2023-02-08T09:39:48.718Z,69.25
2023-02-08T09:42:25.191Z,70.57
2023-02-08T09:45:13.408Z,69.19
2023-02-08T09:47:49.340Z,69.69
2023-02-08T09:50:22.116Z,68.74
2023-02-08T09:53:03.785Z,66.62
2023-02-08T09:55:37.915Z,67.04
2023-02-08T09:58:18.558Z,67.53
2023-02-08T10:00:50.872Z,66.08
2023-02-08T10:03:37.197Z,66.84
2023-02-08T10:06:06.551Z,66.67
2023-02-08T10:08:35.846Z,65.80
2023-02-08T10:11:28.013Z,65.05
2023-02-08T10:14:09.286Z,66.66
2023-02-08T10:16:49.507Z,64.87
2023-02-08T10:19:35.706Z,68.68
2023-02-08T10:22:13.731Z,67.84
2023-02-08T10:25:00.172Z,65.71
2023-02-08T10:27:39.716Z,67.21
2023-02-08T10:30:26.105Z,66.25
2023-02-08T10:33:01.055Z,65.75
2023-02-08T10:35:37.014Z,65.23
2023-02-08T10:38:23.501Z,66.43
2023-02-08T10:40:55.898Z,64.78
2023-02-08T10:43:31.975Z,65.05
2023-02-08T10:46:05.714Z,65.71
2023-02-08T10:48:46.245Z,65.89
2023-02-08T10:51:18.620Z,64.42
2023-02-08T10:53:46.763Z,64.90
2023-02-08T10:56:37.471Z,64.11
2023-02-08T10:59:11.265Z,64.42
2023-02-08T11:01:38.722Z,62.73
2023-02-08T11:04:08.093Z,62.89
2023-02-08T11:06:37.739Z,64.61
2023-02-08T11:09:06.512Z,64.10
2023-02-08T11:11:42.725Z,62.65
2023-02-08T11:14:17.302Z,64.28
2023-02-08T11:16:51.048Z,63.74
2023-02-08T11:19:24.423Z,63.00
2023-02-08T11:21:53.609Z,63.26
2023-02-08T11:24:28.880Z,63.43
2023-02-08T11:26:57.335Z,62.36
2023-02-08T11:29:26.389Z,63.80
2023-02-08T11:32:02.341Z,63.59
2023-02-08T11:34:32.687Z,62.98
2023-02-08T11:37:04.687Z,63.79
2023-02-08T11:39:39.204Z,66.91
2023-02-08T11:42:08.188Z,65.35
2023-02-08T11:44:38.018Z,63.31
2023-02-08T11:47:08.545Z,64.60
2023-02-08T11:49:39.840Z,62.58
2023-02-08T11:52:21.264Z,63.81
2023-02-08T11:54:48.764Z,63.32
2023-02-08T11:57:19.683Z,61.89
2023-02-08T11:59:48.065Z,63.46
2023-02-08T12:02:32.398Z,63.30
2023-02-08T12:05:00.625Z,64.40
2023-02-08T12:07:41.416Z,64.22
2023-02-08T12:10:21.879Z,64.48
2023-02-08T12:13:16.775Z,62.57
2023-02-08T12:15:59.007Z,62.38
2023-02-08T12:18:51.872Z,64.38
2023-02-08T12:21:22.784Z,64.78
2023-02-08T12:23:58.615Z,62.40
2023-02-08T12:26:44.915Z,65.42
2023-02-08T12:29:45.636Z,63.72
2023-02-08T12:32:34.532Z,62.88
2023-02-08T12:35:33.175Z,62.31
2023-02-08T12:38:34.343Z,63.24
2023-02-08T12:41:12.791Z,62.41
2023-02-08T12:43:51.005Z,62.64
2023-02-08T12:46:45.216Z,62.31
2023-02-08T12:49:45.218Z,63.21
2023-02-08T12:52:25.060Z,63.27
2023-02-08T12:54:57.906Z,62.64
2023-02-08T12:57:31.751Z,64.23
2023-02-08T13:00:04.107Z,63.23
2023-02-08T13:02:43.298Z,62.28
2023-02-08T13:05:18.612Z,62.05
2023-02-08T13:07:50.357Z,62.45
2023-02-08T13:10:26.679Z,63.72
2023-02-08T13:12:58.121Z,64.11
2023-02-08T13:15:31.945Z,65.76
2023-02-08T13:18:02.646Z,63.38
2023-02-08T13:20:39.573Z,63.69
2023-02-08T13:23:16.516Z,62.05
2023-02-08T13:25:45.472Z,62.15
2023-02-08T13:28:19.927Z,61.54
2023-02-08T13:30:55.108Z,63.27
2023-02-08T13:33:30.263Z,62.68
2023-02-08T13:35:58.883Z,61.29
2023-02-08T13:38:29.531Z,61.95
2023-02-08T13:41:15.548Z,61.36
2023-02-08T13:43:51.379Z,62.84
2023-02-08T13:46:21.027Z,62.44
2023-02-08T13:48:51.204Z,63.05
2023-02-08T13:51:51.830Z,64.07
2023-02-08T13:54:19.443Z,65.49
2023-02-08T13:56:49.091Z,63.94
2023-02-08T13:59:30.255Z,62.12
2023-02-08T14:02:29.918Z,62.20
2023-02-08T14:05:35.459Z,61.54
2023-02-08T14:08:06.553Z,62.25
2023-02-08T14:10:39.337Z,61.86
2023-02-08T14:13:17.063Z,61.60
2023-02-08T14:15:46.145Z,62.38
2023-02-08T14:18:26.469Z,63.44
2023-02-08T14:21:03.344Z,62.97
2023-02-08T14:23:32.396Z,61.56
2023-02-08T14:26:06.470Z,62.18
2023-02-08T14:28:38.418Z,63.63
2023-02-08T14:31:10.906Z,63.08
2023-02-08T14:33:40.784Z,60.81
2023-02-08T14:36:24.299Z,62.29
2023-02-08T14:39:08.304Z,60.63
2023-02-08T14:41:51.497Z,61.45
2023-02-08T14:44:55.565Z,60.36
2023-02-08T14:48:03.906Z,59.68
2023-02-08T14:50:51.115Z,60.10
2023-02-08T14:53:29.978Z,60.30
2023-02-08T14:56:03.782Z,61.22
2023-02-08T14:58:35.695Z,60.63
2023-02-08T15:01:08.011Z,60.06
2023-02-08T15:03:36.176Z,60.87
2023-02-08T15:06:49.945Z,61.03
2023-02-08T15:09:20.946Z,60.83
2023-02-08T15:12:00.648Z,61.17
2023-02-08T15:14:29.867Z,61.26
2023-02-08T15:16:58.202Z,61.37
2023-02-08T15:19:29.653Z,61.09
2023-02-08T15:22:17.872Z,60.34
2023-02-08T15:24:53.123Z,60.04
2023-02-08T15:27:23.762Z,61.21
2023-02-08T15:29:51.408Z,60.86
2023-02-08T15:32:24.295Z,60.53
2023-02-08T15:34:55.620Z,61.08
2023-02-08T15:37:24.827Z,61.42
2023-02-08T15:39:54.829Z,61.40
2023-02-08T15:42:25.854Z,60.88
2023-02-08T15:44:53.860Z,61.24
2023-02-08T15:47:27.652Z,62.17
2023-02-08T15:49:56.224Z,61.45
2023-02-08T15:52:28.742Z,62.00
2023-02-08T15:54:56.219Z,61.45
2023-02-08T15:57:34.078Z,62.60
2023-02-08T16:00:02.391Z,63.13
2023-02-08T16:02:31.931Z,62.73
2023-02-08T16:05:00.979Z,62.83
2023-02-08T16:07:34.283Z,62.11
2023-02-08T16:10:02.255Z,63.29
2023-02-08T16:12:30.191Z,63.95
2023-02-08T16:14:58.179Z,63.83
2023-02-08T16:17:43.317Z,62.75
2023-02-08T16:20:28.692Z,62.92
2023-02-08T16:23:01.810Z,62.69
2023-02-08T16:25:37.790Z,63.03
2023-02-08T16:28:06.641Z,62.89
2023-02-08T16:30:34.908Z,63.68
2023-02-08T16:33:08.565Z,64.07
2023-02-08T16:35:39.556Z,64.21
2023-02-08T16:38:11.084Z,63.79
2023-02-08T16:40:48.821Z,64.09
2023-02-08T16:43:17.860Z,65.22
2023-02-08T16:45:45.452Z,64.63
2023-02-08T16:48:33.314Z,64.43
2023-02-08T16:51:00.983Z,65.66
2023-02-08T16:53:41.388Z,64.72
2023-02-08T16:56:10.748Z,64.00
2023-02-08T16:58:38.432Z,64.93
2023-02-08T17:01:06.574Z,64.95
2023-02-08T17:03:36.601Z,64.80
2023-02-08T17:06:04.181Z,64.39
2023-02-08T17:08:35.802Z,63.59
2023-02-08T17:11:03.308Z,64.62
2023-02-08T17:13:30.816Z,64.82
2023-02-08T17:16:00.147Z,64.06
2023-02-08T17:18:27.970Z,64.52
2023-02-08T17:23:27.346Z,64.37
2023-02-08T17:25:57.675Z,64.28
2023-02-08T17:28:25.236Z,64.59
2023-02-08T17:30:53.419Z,65.68
2023-02-08T17:33:20.977Z,65.41
2023-02-08T17:35:51.152Z,65.44
2023-02-08T17:38:19.533Z,64.88
2023-02-08T17:40:47.137Z,65.94
2023-02-08T17:43:16.066Z,65.30
2023-02-08T17:45:45.107Z,65.45
2023-02-08T17:48:14.185Z,64.62
2023-02-08T17:50:43.316Z,65.65
2023-02-08T17:53:10.983Z,65.30
2023-02-08T17:55:38.426Z,65.53
2023-02-08T17:58:05.926Z,65.23
2023-02-08T18:00:35.153Z,65.72
2023-02-08T18:03:03.066Z,66.69
2023-02-08T18:05:31.374Z,64.72
2023-02-08T18:07:58.858Z,65.14
2023-02-08T18:10:28.301Z,64.31
2023-02-08T18:12:55.807Z,65.09
2023-02-08T18:15:24.196Z,64.62
2023-02-08T18:17:52.945Z,65.74
2023-02-08T18:20:20.457Z,66.15
2023-02-08T18:22:47.943Z,65.45
2023-02-08T18:25:16.172Z,65.55
2023-02-08T18:27:43.613Z,65.04
2023-02-08T18:30:12.593Z,66.20
2023-02-08T18:32:40.293Z,65.21
2023-02-08T18:35:09.635Z,64.21
2023-02-08T18:37:38.091Z,64.87
2023-02-08T18:40:08.594Z,66.42
2023-02-08T18:42:36.586Z,67.04
2023-02-08T18:45:04.648Z,66.03
2023-02-08T18:47:32.573Z,65.59
2023-02-08T18:50:00.001Z,64.72
2023-02-08T18:52:31.389Z,66.28
2023-02-08T18:54:59.744Z,65.61
2023-02-08T18:57:27.313Z,65.19
2023-02-08T18:59:55.894Z,65.38
2023-02-08T19:02:26.288Z,65.08
2023-02-08T19:04:53.806Z,65.14
2023-02-08T19:07:21.263Z,65.65
2023-02-08T19:09:50.035Z,67.17
2023-02-08T19:12:18.973Z,66.52
2023-02-08T19:14:50.518Z,67.09
2023-02-08T19:17:18.434Z,67.05
2023-02-08T19:19:46.081Z,66.41
2023-02-08T19:22:13.674Z,66.64
2023-02-08T19:24:41.118Z,65.96
2023-02-08T19:27:09.836Z,65.81
2023-02-08T19:29:37.314Z,66.12
2023-02-08T19:32:04.897Z,67.71
2023-02-08T19:34:32.376Z,66.41
2023-02-08T19:36:59.831Z,66.43
2023-02-08T19:39:28.679Z,67.30
2023-02-08T19:41:58.562Z,66.28
2023-02-08T19:44:30.277Z,67.85
2023-02-08T19:46:58.315Z,67.91
2023-02-08T19:49:27.257Z,66.09
2023-02-08T19:51:54.857Z,66.99
2023-02-08T19:54:23.014Z,69.14
2023-02-08T19:56:52.166Z,67.99
2023-02-08T19:59:22.049Z,66.36
2023-02-08T20:01:51.306Z,66.80
2023-02-08T20:04:18.794Z,66.74
2023-02-08T20:06:46.311Z,67.33
2023-02-08T20:09:16.601Z,66.42
2023-02-08T20:11:56.321Z,66.58
2023-02-08T20:14:25.194Z,66.41
2023-02-08T20:16:54.131Z,66.93
2023-02-08T20:19:21.747Z,66.52
2023-02-08T20:21:49.568Z,67.19
2023-02-08T20:24:17.210Z,66.41
2023-02-08T20:26:46.453Z,66.28
2023-02-08T20:29:15.009Z,67.28
2023-02-08T20:31:43.972Z,66.32
2023-02-08T20:34:15.061Z,67.19
2023-02-08T20:36:49.700Z,66.45
2023-02-08T20:39:20.728Z,66.87
2023-02-08T20:41:48.590Z,66.58
2023-02-08T20:44:19.172Z,66.87
2023-02-08T20:46:47.478Z,66.28
2023-02-08T20:49:21.935Z,67.62
2023-02-08T20:51:51.858Z,67.00
2023-02-08T20:54:19.703Z,66.41
2023-02-08T20:56:47.178Z,66.52
2023-02-08T20:59:15.816Z,67.13
2023-02-08T21:01:46.401Z,69.12
2023-02-08T21:04:14.447Z,67.43
2023-02-08T21:06:45.971Z,66.54
2023-02-08T21:09:16.014Z,67.25
2023-02-08T21:11:44.567Z,66.23
2023-02-08T21:14:15.333Z,66.44
2023-02-08T21:16:43.157Z,66.77
2023-02-08T21:19:10.990Z,67.45
2023-02-08T21:21:38.711Z,66.00
2023-02-08T21:24:07.800Z,67.52
2023-02-08T21:26:35.450Z,66.74
2023-02-08T21:29:06.054Z,67.42
2023-02-08T21:31:36.426Z,66.46
2023-02-08T21:34:04.516Z,66.32
2023-02-08T21:36:32.469Z,66.51
2023-02-08T21:39:00.324Z,66.45
2023-02-08T21:41:31.711Z,66.86
2023-02-08T21:44:00.926Z,67.03
2023-02-08T21:46:28.803Z,66.71
2023-02-08T21:49:14.899Z,66.50
2023-02-08T21:52:00.481Z,68.11
2023-02-08T21:54:53.487Z,66.66
2023-02-08T21:57:23.949Z,66.52
2023-02-08T21:59:53.835Z,66.13
2023-02-08T22:02:25.556Z,66.54
2023-02-08T22:04:54.260Z,66.52
2023-02-08T22:07:22.148Z,66.46
2023-02-08T22:09:49.823Z,67.08
2023-02-08T22:12:20.596Z,66.86
2023-02-08T22:14:50.231Z,66.87
2023-02-08T22:17:17.898Z,68.16
2023-02-08T22:19:45.764Z,69.30
2023-02-08T22:22:13.336Z,69.02
2023-02-08T22:24:40.799Z,67.79
2023-02-08T22:27:08.327Z,68.20
2023-02-08T22:29:35.971Z,67.11
2023-02-08T22:32:05.610Z,67.15
2023-02-08T22:34:33.193Z,67.33
2023-02-08T22:37:03.693Z,70.22
2023-02-08T22:39:32.830Z,81.16
2023-02-08T22:42:00.534Z,82.00
2023-02-08T22:44:27.965Z,78.14
2023-02-08T22:46:57.364Z,74.56
2023-02-08T22:49:26.272Z,72.05
2023-02-08T22:51:53.773Z,74.26
2023-02-08T22:54:21.326Z,71.01
2023-02-08T22:56:49.098Z,66.50
2023-02-08T22:59:16.808Z,68.94
2023-02-08T23:01:44.645Z,76.32
2023-02-08T23:04:12.279Z,64.66
2023-02-08T23:06:41.193Z,71.56
2023-02-08T23:09:08.724Z,71.57
2023-02-08T23:11:36.166Z,69.81
2023-02-08T23:14:03.592Z,67.00
2023-02-08T23:16:31.165Z,69.22
2023-02-08T23:18:58.625Z,69.47
2023-02-08T23:21:26.164Z,70.65
2023-02-08T23:23:54.943Z,71.86
2023-02-08T23:26:23.363Z,66.54
2023-02-08T23:28:52.713Z,61.39
2023-02-08T23:31:21.822Z,62.74
2023-02-08T23:33:49.609Z,63.59
2023-02-08T23:36:19.854Z,64.61
2023-02-08T23:38:47.795Z,64.71
2023-02-08T23:41:18.289Z,65.56
2023-02-08T23:43:45.858Z,65.34
2023-02-08T23:46:17.408Z,65.94
2023-02-08T23:48:47.520Z,66.71
2023-02-08T23:51:16.140Z,66.29
2023-02-08T23:53:43.739Z,65.61
2023-02-08T23:56:15.342Z,66.25
2023-02-08T23:58:44.808Z,66.75
